Time;durP1;ratioP1;P1;durP2;ratioP2;P2;SDS_P1;SDS_P2;PMS_P1;PMS_P2;Temp;Humidity;BMP_temperature;BMP_pressure;BME280_temperature;BME280_humidity;BME280_pressure;Samples;Min_cycle;Max_cycle;Signal;HPM_P1;HPM_P2
2022/08/16 00:01:18;;;;;;;4.80;3.67;;;23.20;99.90;;;;;;5035441;28;20465;-72
2022/08/16 00:03:47;;;;;;;10.83;4.17;;;23.00;99.90;;;;;;5035999;28;20480;-74
2022/08/16 00:06:14;;;;;;;4.47;4.07;;;22.90;99.90;;;;;;5035147;28;20480;-74
2022/08/16 00:08:41;;;;;;;4.40;3.73;;;22.90;99.90;;;;;;5037412;28;21837;-74
2022/08/16 00:11:11;;;;;;;6.87;4.47;;;22.90;99.90;;;;;;5034993;28;20456;-74
2022/08/16 00:13:38;;;;;;;5.10;3.60;;;22.90;99.90;;;;;;5040385;28;20475;-73
2022/08/16 00:16:05;;;;;;;4.93;3.63;;;22.90;99.90;;;;;;5039068;28;20456;-74
2022/08/16 00:18:32;;;;;;;4.80;4.40;;;22.80;99.90;;;;;;5027351;28;20453;-74
2022/08/16 00:20:59;;;;;;;3.37;3.07;;;22.80;99.90;;;;;;5027968;28;21016;-74
2022/08/16 00:23:26;;;;;;;7.43;3.80;;;22.70;99.90;;;;;;5035868;28;21047;-75
2022/08/16 00:25:52;;;;;;;4.87;3.80;;;22.80;99.90;;;;;;5033390;28;20484;-74
2022/08/16 00:28:22;;;;;;;4.90;3.73;;;22.60;99.90;;;;;;5035325;28;20471;-75
2022/08/16 00:30:49;;;;;;;6.40;4.30;;;22.50;99.90;;;;;;5037559;28;20473;-74
2022/08/16 00:33:16;;;;;;;5.90;4.90;;;22.50;99.90;;;;;;5030929;28;20514;-74
2022/08/16 00:35:43;;;;;;;6.10;4.07;;;22.50;99.90;;;;;;5033538;28;20463;-75
2022/08/16 00:38:10;;;;;;;4.97;4.47;;;22.50;99.90;;;;;;5033065;28;20466;-75
2022/08/16 00:40:40;;;;;;;4.60;4.07;;;22.40;99.90;;;;;;5030668;28;20464;-74
2022/08/16 00:43:10;;;;;;;4.70;4.10;;;22.30;99.90;;;;;;5038549;28;20490;-74
2022/08/16 00:45:43;;;;;;;6.30;4.63;;;22.30;99.90;;;;;;5035635;28;20483;-73
2022/08/16 00:48:13;;;;;;;6.40;4.20;;;22.30;99.90;;;;;;5035651;28;20470;-75
2022/08/16 00:50:41;;;;;;;4.77;4.27;;;22.30;99.90;;;;;;5028566;28;20455;-74
2022/08/16 00:53:11;;;;;;;5.83;4.70;;;22.20;99.90;;;;;;5034892;28;22053;-74
2022/08/16 00:55:41;;;;;;;4.90;3.93;;;22.00;99.90;;;;;;5039707;28;20458;-73
2022/08/16 00:58:10;;;;;;;6.20;4.10;;;22.00;99.90;;;;;;5034791;28;20549;-74
2022/08/16 01:00:39;;;;;;;6.40;3.83;;;22.00;99.90;;;;;;5042215;28;20459;-75
2022/08/16 01:03:08;;;;;;;3.83;3.43;;;22.00;99.90;;;;;;5045191;28;20501;-74
2022/08/16 01:05:37;;;;;;;3.50;3.20;;;22.00;99.90;;;;;;5042026;28;20490;-73
2022/08/16 01:08:05;;;;;;;5.43;4.20;;;22.00;99.90;;;;;;5039489;28;20525;-74
2022/08/16 01:10:34;;;;;;;4.27;3.60;;;22.10;99.90;;;;;;5036648;28;20459;-74
2022/08/16 01:13:05;;;;;;;4.77;4.20;;;22.00;99.90;;;;;;5047676;28;20484;-75
2022/08/16 01:15:33;;;;;;;4.10;3.70;;;22.10;99.90;;;;;;5042209;28;20471;-73
2022/08/16 01:18:04;;;;;;;7.90;4.07;;;22.20;99.90;;;;;;5045901;28;20463;-74
2022/08/16 01:20:37;;;;;;;3.87;3.20;;;22.20;99.90;;;;;;5030214;28;20818;-73
2022/08/16 01:23:11;;;;;;;5.23;3.77;;;22.30;99.90;;;;;;5040692;28;20840;-75
2022/08/16 01:25:44;;;;;;;4.87;3.53;;;22.30;99.90;;;;;;5040142;28;20846;-75
2022/08/16 01:28:15;;;;;;;4.93;2.90;;;22.30;99.90;;;;;;5038179;28;20462;-74
2022/08/16 01:30:46;;;;;;;4.00;3.20;;;22.30;99.90;;;;;;5035953;28;20463;-74
2022/08/16 01:33:13;;;;;;;4.10;3.70;;;22.30;99.90;;;;;;5046759;28;20467;-75
2022/08/16 01:35:44;;;;;;;4.33;3.70;;;22.20;99.90;;;;;;5038278;28;24173;-72
2022/08/16 01:38:18;;;;;;;4.67;4.23;;;22.20;99.90;;;;;;5043107;28;20463;-74
2022/08/16 01:40:47;;;;;;;4.63;3.50;;;22.30;99.90;;;;;;5047514;28;20469;-75
2022/08/16 01:43:13;;;;;;;3.53;3.23;;;22.20;99.90;;;;;;5051279;28;20464;-74
2022/08/16 01:45:41;;;;;;;4.20;3.57;;;22.20;99.90;;;;;;5042326;28;20568;-74
2022/08/16 01:48:08;;;;;;;4.63;3.43;;;22.10;99.90;;;;;;5046378;28;20670;-74
2022/08/16 01:50:36;;;;;;;3.93;3.53;;;22.00;99.90;;;;;;5046239;28;20479;-74
2022/08/16 01:53:03;;;;;;;8.50;4.40;;;22.10;99.90;;;;;;5036640;28;20479;-74
2022/08/16 01:55:30;;;;;;;5.03;3.23;;;22.10;99.90;;;;;;5050573;28;20458;-74
2022/08/16 01:57:58;;;;;;;3.90;3.50;;;22.10;99.90;;;;;;5044994;28;20505;-73
2022/08/16 02:00:26;;;;;;;5.30;4.10;;;22.10;99.90;;;;;;5040593;28;20465;-74
2022/08/16 02:02:53;;;;;;;6.13;3.73;;;22.10;99.90;;;;;;5048020;28;20882;-74
2022/08/16 02:05:21;;;;;;;3.90;3.53;;;22.20;99.90;;;;;;5036398;28;20848;-75
2022/08/16 02:07:48;;;;;;;6.57;4.03;;;22.10;99.90;;;;;;5042621;28;20467;-75
2022/08/16 02:10:16;;;;;;;4.43;4.03;;;22.00;99.90;;;;;;5041068;28;20468;-73
2022/08/16 02:12:44;;;;;;;19.17;4.93;;;22.10;99.90;;;;;;5043723;28;20472;-74
2022/08/16 02:15:13;;;;;;;3.73;3.43;;;22.10;99.90;;;;;;5042780;28;20458;-74
2022/08/16 02:17:41;;;;;;;5.80;3.70;;;22.10;99.90;;;;;;5036802;28;20547;-75
2022/08/16 02:20:09;;;;;;;4.43;3.70;;;22.20;99.90;;;;;;5031158;28;20483;-74
2022/08/16 02:22:39;;;;;;;3.93;3.20;;;22.20;99.90;;;;;;5041138;28;20578;-73
2022/08/16 02:25:10;;;;;;;5.00;3.83;;;22.10;99.90;;;;;;5041412;28;20488;-74
2022/08/16 02:27:41;;;;;;;3.50;3.20;;;22.00;99.90;;;;;;5040308;28;20464;-73
2022/08/16 02:30:13;;;;;;;6.30;4.07;;;22.10;99.90;;;;;;5031806;28;20468;-73
2022/08/16 02:32:42;;;;;;;6.27;5.47;;;22.10;99.90;;;;;;5035154;28;20480;-73
2022/08/16 02:35:10;;;;;;;3.70;3.30;;;22.10;99.90;;;;;;5036091;28;20583;-73
2022/08/16 02:37:38;;;;;;;4.57;4.10;;;22.00;99.90;;;;;;5045326;28;20559;-76
2022/08/16 02:40:06;;;;;;;5.80;4.40;;;22.00;99.90;;;;;;5030557;28;20491;-74
2022/08/16 02:42:32;;;;;;;4.80;4.40;;;22.00;99.90;;;;;;5036953;28;20483;-74
2022/08/16 02:44:59;;;;;;;6.47;4.30;;;21.90;99.90;;;;;;5042490;28;20984;-73
2022/08/16 02:47:26;;;;;;;6.97;3.93;;;21.90;99.90;;;;;;5041097;28;20550;-73
2022/08/16 02:49:54;;;;;;;5.53;4.10;;;21.90;99.90;;;;;;5040788;28;20462;-74
2022/08/16 02:52:21;;;;;;;11.90;6.60;;;21.90;99.90;;;;;;5041404;28;20451;-74
2022/08/16 02:54:48;;;;;;;5.50;4.10;;;21.80;99.90;;;;;;5031564;28;20485;-74
2022/08/16 02:57:15;;;;;;;6.67;3.90;;;21.80;99.90;;;;;;5041942;28;20988;-74
2022/08/16 02:59:42;;;;;;;6.43;4.10;;;21.80;99.90;;;;;;5045466;28;20468;-73
2022/08/16 03:02:10;;;;;;;4.93;3.90;;;21.80;99.90;;;;;;5029836;28;20605;-76
2022/08/16 03:04:37;;;;;;;8.40;4.00;;;21.80;99.90;;;;;;5037547;28;20468;-73
2022/08/16 03:07:06;;;;;;;4.30;3.67;;;21.70;99.90;;;;;;5077786;22;20589;-69
2022/08/16 03:09:33;;;;;;;4.43;4.03;;;21.70;99.90;;;;;;5061763;28;20578;-68
2022/08/16 03:12:00;;;;;;;4.63;3.37;;;21.70;99.90;;;;;;5055115;28;20846;-68
2022/08/16 03:14:27;;;;;;;4.03;3.30;;;21.70;99.90;;;;;;5065764;28;20546;-68
2022/08/16 03:16:54;;;;;;;6.90;3.50;;;21.60;99.90;;;;;;5049761;28;20488;-68
2022/08/16 03:19:21;;;;;;;4.33;3.50;;;21.50;99.90;;;;;;5057743;28;20448;-67
2022/08/16 03:21:48;;;;;;;5.30;4.30;;;21.50;99.90;;;;;;5036475;28;21227;-68
2022/08/16 03:24:16;;;;;;;5.27;4.70;;;21.50;99.90;;;;;;5029824;28;20476;-68
2022/08/16 03:26:43;;;;;;;5.40;4.70;;;21.30;99.90;;;;;;5038787;28;21011;-68
2022/08/16 03:29:11;;;;;;;4.67;4.17;;;21.20;99.90;;;;;;5035076;28;20464;-68
2022/08/16 03:31:38;;;;;;;6.17;3.90;;;21.20;99.90;;;;;;5038744;28;20479;-68
2022/08/16 03:34:05;;;;;;;4.80;3.87;;;21.20;99.90;;;;;;5032292;28;20479;-67
2022/08/16 03:36:31;;;;;;;7.87;4.47;;;21.20;99.90;;;;;;5039897;28;20754;-68
2022/08/16 03:38:58;;;;;;;4.47;3.77;;;21.20;99.90;;;;;;5035002;28;20464;-67
2022/08/16 03:41:26;;;;;;;7.27;4.70;;;21.20;99.90;;;;;;5035128;28;20850;-67
2022/08/16 03:43:54;;;;;;;7.23;4.03;;;21.20;99.90;;;;;;5039558;28;20460;-68
2022/08/16 03:46:21;;;;;;;6.20;4.50;;;21.20;99.90;;;;;;5042147;28;21020;-67
2022/08/16 03:48:49;;;;;;;3.97;3.30;;;21.20;99.90;;;;;;5031994;28;20466;-68
2022/08/16 03:51:16;;;;;;;11.50;4.87;;;21.10;99.90;;;;;;5044431;28;20516;-68
2022/08/16 03:53:44;;;;;;;6.70;4.27;;;21.10;99.90;;;;;;5043009;28;20825;-69
2022/08/16 03:56:11;;;;;;;6.33;4.90;;;21.00;99.90;;;;;;5034474;28;20478;-69
2022/08/16 03:58:39;;;;;;;7.27;4.00;;;21.00;99.90;;;;;;5040459;28;20794;-69
2022/08/16 04:01:06;;;;;;;5.07;4.10;;;21.00;99.90;;;;;;5044020;28;20538;-68
2022/08/16 04:03:33;;;;;;;7.00;4.00;;;21.00;99.90;;;;;;5038018;28;21004;-68
2022/08/16 04:06:00;;;;;;;5.53;4.20;;;20.90;99.90;;;;;;5029176;28;20487;-68
2022/08/16 04:08:27;;;;;;;4.33;3.90;;;21.00;99.90;;;;;;5027552;28;21096;-68
2022/08/16 04:10:55;;;;;;;4.70;4.30;;;21.00;99.90;;;;;;5031923;28;20456;-68
2022/08/16 04:13:23;;;;;;;10.50;4.80;;;20.90;99.90;;;;;;5024920;28;20952;-68
2022/08/16 04:15:52;;;;;;;4.13;3.73;;;20.90;99.90;;;;;;5017095;28;20984;-68
2022/08/16 04:18:19;;;;;;;4.20;3.80;;;21.00;99.90;;;;;;5029209;28;21090;-68
2022/08/16 04:20:46;;;;;;;5.60;4.40;;;21.10;99.90;;;;;;5032298;28;20959;-68
2022/08/16 04:23:13;;;;;;;4.70;3.57;;;21.10;99.90;;;;;;5031579;28;20687;-68
2022/08/16 04:25:40;;;;;;;6.53;3.70;;;21.20;99.90;;;;;;5025119;28;20562;-68
2022/08/16 04:28:06;;;;;;;4.87;4.47;;;21.20;99.90;;;;;;5030129;28;20478;-68
2022/08/16 04:30:33;;;;;;;11.60;5.90;;;21.10;99.90;;;;;;5034330;28;20498;-68
2022/08/16 04:33:02;;;;;;;4.63;4.13;;;21.00;99.90;;;;;;5030013;28;20459;-68
2022/08/16 04:35:28;;;;;;;5.27;4.10;;;21.00;99.90;;;;;;5019774;28;20961;-68
2022/08/16 04:37:55;;;;;;;5.77;4.87;;;20.90;99.90;;;;;;5035243;28;20464;-68
2022/08/16 04:40:23;;;;;;;11.53;4.63;;;20.90;99.90;;;;;;5047055;28;20972;-67
2022/08/16 04:42:50;;;;;;;6.03;4.30;;;20.90;99.90;;;;;;5046053;28;20522;-68
2022/08/16 04:45:18;;;;;;;6.73;4.50;;;20.80;99.90;;;;;;5047951;28;20460;-68
2022/08/16 04:47:45;;;;;;;4.60;4.10;;;20.80;99.90;;;;;;5047462;28;20927;-68
2022/08/16 04:50:17;;;;;;;7.73;5.40;;;20.80;99.90;;;;;;5045687;28;20441;-69
2022/08/16 04:52:45;;;;;;;6.83;4.20;;;20.80;99.90;;;;;;5046412;28;20445;-69
2022/08/16 04:55:14;;;;;;;6.70;4.93;;;20.80;99.90;;;;;;5048657;28;20548;-70
2022/08/16 04:57:42;;;;;;;8.37;5.63;;;20.80;99.90;;;;;;5039478;28;20532;-69
2022/08/16 05:00:12;;;;;;;6.40;5.20;;;20.80;99.90;;;;;;5043772;28;20456;-69
2022/08/16 05:02:40;;;;;;;9.07;4.67;;;20.90;99.90;;;;;;5045510;28;20528;-69
2022/08/16 05:05:08;;;;;;;12.33;4.10;;;21.00;99.90;;;;;;5040019;28;20460;-69
2022/08/16 05:07:36;;;;;;;6.07;4.00;;;21.10;99.90;;;;;;5045572;28;20484;-68
2022/08/16 05:10:04;;;;;;;3.97;3.57;;;21.20;99.90;;;;;;5046046;28;20444;-67
2022/08/16 05:12:31;;;;;;;6.10;3.87;;;21.20;99.90;;;;;;5043867;28;20451;-67
2022/08/16 05:14:58;;;;;;;5.83;4.43;;;21.20;99.90;;;;;;5044295;28;20924;-67
2022/08/16 05:17:26;;;;;;;8.43;4.00;;;21.30;99.90;;;;;;5049692;28;20441;-67
2022/08/16 05:19:53;;;;;;;3.90;3.50;;;21.40;99.90;;;;;;5045933;28;21065;-68
2022/08/16 05:22:20;;;;;;;4.53;4.10;;;21.60;99.90;;;;;;5046110;28;20458;-68
2022/08/16 05:24:48;;;;;;;5.00;3.23;;;21.90;99.90;;;;;;5043786;28;20448;-68
2022/08/16 05:27:16;;;;;;;4.10;3.70;;;22.10;99.90;;;;;;5041333;28;20558;-68
2022/08/16 05:29:43;;;;;;;8.03;4.93;;;22.20;99.90;;;;;;5036193;28;20456;-67
2022/08/16 05:32:10;;;;;;;3.93;3.53;;;22.50;99.90;;;;;;5042426;28;20604;-68
2022/08/16 05:34:37;;;;;;;4.47;3.27;;;22.70;99.90;;;;;;5033819;28;20470;-68
2022/08/16 05:37:03;;;;;;;4.10;3.60;;;22.90;99.90;;;;;;5039385;28;20476;-68
2022/08/16 05:39:31;;;;;;;6.77;4.30;;;23.10;99.90;;;;;;5040147;28;20481;-69
2022/08/16 05:41:59;;;;;;;4.77;4.20;;;23.20;99.90;;;;;;5038134;28;20654;-68
2022/08/16 05:44:25;;;;;;;4.90;3.30;;;23.40;99.90;;;;;;5046031;28;20558;-68
2022/08/16 05:46:54;;;;;;;4.37;3.13;;;23.70;99.90;;;;;;5051695;28;20493;-69
2022/08/16 05:49:22;;;;;;;3.03;2.57;;;23.70;99.90;;;;;;5050881;28;20452;-67
2022/08/16 05:51:48;;;;;;;6.40;3.97;;;24.10;99.90;;;;;;5052917;28;20507;-69
2022/08/16 05:54:17;;;;;;;4.30;3.87;;;24.20;99.90;;;;;;5043584;28;20485;-69
2022/08/16 05:56:45;;;;;;;5.47;3.50;;;24.50;99.90;;;;;;5041813;28;21654;-69
2022/08/16 05:59:15;;;;;;;4.30;3.27;;;24.70;99.90;;;;;;5045666;28;20473;-69
2022/08/16 06:01:44;;;;;;;6.00;4.03;;;24.80;99.90;;;;;;5046066;28;20925;-69
2022/08/16 06:04:13;;;;;;;5.83;4.00;;;25.00;99.90;;;;;;5047738;28;20450;-69
2022/08/16 06:06:40;;;;;;;7.63;4.20;;;25.20;99.90;;;;;;5052500;28;20865;-69
2022/08/16 06:09:07;;;;;;;7.50;4.27;;;25.30;99.90;;;;;;5044061;28;20546;-69
2022/08/16 06:11:34;;;;;;;3.67;3.17;;;25.30;99.90;;;;;;5051767;28;20453;-70
2022/08/16 06:14:02;;;;;;;4.67;3.57;;;25.40;99.90;;;;;;5051439;28;20455;-69
2022/08/16 06:16:31;;;;;;;4.17;3.73;;;25.90;99.90;;;;;;5046151;28;20457;-67
2022/08/16 06:18:57;;;;;;;5.50;3.90;;;26.10;99.90;;;;;;5046100;28;21142;-70
2022/08/16 06:21:25;;;;;;;7.07;3.97;;;26.20;99.90;;;;;;5046343;28;21043;-68
2022/08/16 06:23:51;;;;;;;3.80;3.10;;;26.30;99.90;;;;;;5048578;28;20690;-69
2022/08/16 06:26:18;;;;;;;4.47;3.30;;;26.20;99.90;;;;;;5046557;28;20472;-69
2022/08/16 06:28:45;;;;;;;3.93;3.53;;;26.10;99.90;;;;;;5047484;28;20456;-69
2022/08/16 06:31:13;;;;;;;5.90;3.43;;;26.20;99.90;;;;;;5045540;28;20457;-69
2022/08/16 06:33:43;;;;;;;3.73;3.40;;;26.20;99.90;;;;;;5051236;28;20445;-68
2022/08/16 06:36:10;;;;;;;5.53;4.10;;;26.30;99.90;;;;;;5052616;28;20973;-69
2022/08/16 06:38:37;;;;;;;8.30;3.70;;;26.70;99.90;;;;;;5047649;28;20792;-68
2022/08/16 06:41:05;;;;;;;4.53;3.50;;;26.90;99.90;;;;;;5052743;28;20442;-68
2022/08/16 06:43:33;;;;;;;5.23;3.80;;;27.00;99.90;;;;;;5051058;28;20442;-68
2022/08/16 06:46:01;;;;;;;6.27;4.10;;;27.20;99.90;;;;;;5048982;28;20565;-68
2022/08/16 06:48:28;;;;;;;4.00;3.60;;;27.10;99.90;;;;;;5047353;28;20484;-68
2022/08/16 06:50:57;;;;;;;9.93;3.90;;;27.10;99.90;;;;;;5047569;28;20862;-68
2022/08/16 06:53:24;;;;;;;5.37;4.00;;;27.30;99.90;;;;;;5043149;28;20510;-68
2022/08/16 06:55:50;;;;;;;3.60;3.30;;;27.60;99.90;;;;;;5046126;28;20465;-72
2022/08/16 06:58:17;;;;;;;5.40;3.60;;;27.50;99.90;;;;;;5042766;28;20488;-69
2022/08/16 07:00:44;;;;;;;6.47;3.70;;;27.70;99.90;;;;;;5040417;28;20490;-69
2022/08/16 07:03:11;;;;;;;5.80;3.53;;;27.70;99.90;;;;;;5043838;28;20461;-68
2022/08/16 07:05:39;;;;;;;4.20;3.80;;;27.50;99.90;;;;;;5030434;28;20502;-68
2022/08/16 07:08:10;;;;;;;5.03;3.37;;;28.00;99.90;;;;;;5046588;28;20536;-69
2022/08/16 07:10:37;;;;;;;4.53;3.47;;;28.20;99.90;;;;;;5045720;28;20454;-68
2022/08/16 07:13:04;;;;;;;4.70;3.87;;;28.30;99.90;;;;;;5035501;28;21113;-68
2022/08/16 07:15:31;;;;;;;5.03;3.30;;;28.20;99.90;;;;;;5041888;28;20569;-68
2022/08/16 07:17:59;;;;;;;8.37;3.73;;;28.20;99.90;;;;;;5033290;28;20464;-68
2022/08/16 07:20:27;;;;;;;7.80;4.60;;;28.10;99.90;;;;;;5037673;28;20968;-68
2022/08/16 07:22:54;;;;;;;11.70;3.90;;;28.40;99.90;;;;;;5043367;28;20454;-69
2022/08/16 07:25:23;;;;;;;5.00;4.00;;;28.80;99.90;;;;;;5048713;28;20581;-68
2022/08/16 07:27:50;;;;;;;4.73;3.80;;;29.20;99.90;;;;;;5052271;28;20484;-69
2022/08/16 07:30:18;;;;;;;11.73;4.27;;;29.30;99.90;;;;;;5049199;28;20940;-69
2022/08/16 07:32:45;;;;;;;12.10;3.77;;;29.90;99.90;;;;;;5046448;28;20444;-69
2022/08/16 07:35:12;;;;;;;5.57;3.67;;;30.10;99.90;;;;;;5041331;28;20432;-68
2022/08/16 07:37:39;;;;;;;8.50;4.23;;;30.40;99.90;;;;;;5046553;28;20972;-69
2022/08/16 07:40:06;;;;;;;5.83;4.00;;;30.60;99.90;;;;;;5047260;28;20435;-68
2022/08/16 07:42:34;;;;;;;4.20;3.80;;;30.60;99.90;;;;;;5047244;28;20456;-68
2022/08/16 07:45:02;;;;;;;4.50;4.10;;;30.60;99.90;;;;;;5049166;28;20447;-68
2022/08/16 07:47:29;;;;;;;5.60;4.83;;;30.60;99.90;;;;;;5049223;28;20482;-68
2022/08/16 07:49:55;;;;;;;6.00;4.17;;;31.00;99.90;;;;;;5048023;28;20467;-68
2022/08/16 07:52:22;;;;;;;6.33;3.90;;;31.10;99.90;;;;;;5042533;28;20963;-69
2022/08/16 07:54:49;;;;;;;5.50;4.03;;;31.40;99.90;;;;;;5048632;28;20540;-69
2022/08/16 07:57:16;;;;;;;5.80;3.53;;;31.90;99.90;;;;;;5050432;28;20464;-69
2022/08/16 07:59:44;;;;;;;5.60;3.10;;;32.10;99.90;;;;;;5051500;28;20452;-68
2022/08/16 08:02:11;;;;;;;5.30;4.30;;;32.00;99.90;;;;;;5047577;28;20946;-68
2022/08/16 08:04:38;;;;;;;5.37;4.10;;;32.10;99.90;;;;;;5046644;28;20443;-69
2022/08/16 08:07:05;;;;;;;4.23;3.53;;;32.30;99.90;;;;;;5044898;28;20501;-69
2022/08/16 08:09:32;;;;;;;9.60;5.77;;;31.60;99.90;;;;;;5044114;28;20471;-68
2022/08/16 08:11:58;;;;;;;7.23;5.00;;;31.70;99.90;;;;;;5040372;28;20449;-68
2022/08/16 08:14:25;;;;;;;4.70;4.10;;;32.00;99.90;;;;;;5048851;28;20464;-68
2022/08/16 08:16:53;;;;;;;4.57;4.17;;;32.60;99.20;;;;;;5043057;28;20997;-68
2022/08/16 08:19:21;;;;;;;7.50;5.00;;;32.90;98.60;;;;;;5046343;28;20462;-68
2022/08/16 08:21:48;;;;;;;4.03;3.73;;;33.40;97.10;;;;;;5049024;28;20448;-68
2022/08/16 08:24:15;;;;;;;4.77;3.90;;;33.40;96.70;;;;;;5044661;28;20600;-68
2022/08/16 08:26:42;;;;;;;6.23;5.37;;;33.30;96.30;;;;;;5047619;28;21011;-68
2022/08/16 08:29:08;;;;;;;5.83;5.27;;;33.40;96.40;;;;;;5041713;28;20478;-68
2022/08/16 08:31:36;;;;;;;6.40;5.30;;;33.60;95.40;;;;;;5037425;28;20577;-67
2022/08/16 08:34:06;;;;;;;4.97;4.47;;;33.30;95.30;;;;;;5040346;28;20464;-69
2022/08/16 08:36:34;;;;;;;4.57;4.10;;;33.30;95.20;;;;;;5049653;28;20475;-69
2022/08/16 08:39:01;;;;;;;7.33;4.50;;;33.40;95.00;;;;;;5046099;28;20612;-69
2022/08/16 08:41:28;;;;;;;10.53;5.63;;;33.70;94.30;;;;;;5040713;28;20457;-69
2022/08/16 08:43:56;;;;;;;7.60;4.97;;;33.90;94.20;;;;;;5044089;28;20445;-68
2022/08/16 08:46:24;;;;;;;6.13;5.53;;;34.10;94.20;;;;;;5047976;28;20462;-70
2022/08/16 08:48:52;;;;;;;5.43;4.70;;;34.70;92.40;;;;;;5047798;28;20493;-69
2022/08/16 08:51:22;;;;;;;8.80;5.77;;;35.30;92.20;;;;;;5040591;28;20456;-70
2022/08/16 08:53:49;;;;;;;8.10;4.47;;;34.70;91.50;;;;;;5044743;28;20952;-70
2022/08/16 08:56:16;;;;;;;9.47;5.80;;;34.60;91.40;;;;;;5045895;28;20455;-69
2022/08/16 08:58:43;;;;;;;6.07;4.37;;;34.40;91.40;;;;;;5047528;28;20454;-69
2022/08/16 09:01:10;;;;;;;6.60;4.53;;;35.00;91.30;;;;;;5052045;28;20578;-70
2022/08/16 09:03:39;;;;;;;8.23;5.07;;;35.60;88.20;;;;;;5050723;28;20461;-70
2022/08/16 09:06:07;;;;;;;5.60;5.17;;;35.40;90.00;;;;;;5045587;28;20475;-69
2022/08/16 09:11:15;;;;;;;5.03;4.40;;;33.70;90.30;;;;;;5073537;28;20654;-75
2022/08/16 09:13:43;;;;;;;14.73;5.33;;;33.70;91.40;;;;;;5080312;28;20524;-74
2022/08/16 09:16:10;;;;;;;6.90;4.57;;;34.10;90.30;;;;;;5079069;28;20838;-74
2022/08/16 09:18:37;;;;;;;5.80;4.80;;;33.80;90.70;;;;;;5081963;28;20442;-74
2022/08/16 09:21:05;;;;;;;5.53;5.00;;;34.10;91.30;;;;;;5061394;28;21640;-74
2022/08/16 09:23:34;;;;;;;10.53;5.27;;;34.60;89.30;;;;;;5064707;28;20527;-74
2022/08/16 09:26:01;;;;;;;5.17;4.47;;;34.40;88.80;;;;;;5064610;28;20515;-74
2022/08/16 09:28:29;;;;;;;6.33;4.63;;;35.60;86.40;;;;;;5058117;28;20570;-75
2022/08/16 09:30:56;;;;;;;4.73;4.33;;;36.40;84.50;;;;;;5055070;28;20487;-75
2022/08/16 09:33:23;;;;;;;5.97;4.47;;;36.60;82.80;;;;;;5058228;28;20453;-75
2022/08/16 09:35:51;;;;;;;7.63;4.50;;;37.30;80.80;;;;;;5061174;28;20460;-75
2022/08/16 09:38:18;;;;;;;4.33;3.93;;;37.40;79.80;;;;;;5062782;28;20466;-75
2022/08/16 09:40:47;;;;;;;6.37;4.70;;;37.60;76.90;;;;;;5058450;28;20573;-75
2022/08/16 09:43:20;;;;;;;8.53;4.00;;;37.70;74.90;;;;;;5063608;28;20863;-75
2022/08/16 09:45:48;;;;;;;6.73;4.23;;;37.60;75.70;;;;;;5053864;28;21167;-75
2022/08/16 09:48:15;;;;;;;4.27;3.87;;;38.00;75.40;;;;;;5064060;28;20455;-74
2022/08/16 09:50:44;;;;;;;5.43;4.53;;;38.10;73.10;;;;;;5062485;28;20483;-75
2022/08/16 09:53:14;;;;;;;6.37;4.20;;;38.20;72.20;;;;;;5060249;28;20858;-75
2022/08/16 09:55:45;;;;;;;4.13;3.83;;;38.30;73.20;;;;;;5061247;28;20439;-74
2022/08/16 09:58:12;;;;;;;4.70;4.30;;;38.60;70.10;;;;;;5059788;28;20443;-74
2022/08/16 10:00:38;;;;;;;15.50;5.10;;;38.50;69.30;;;;;;5058268;28;20461;-74
2022/08/16 10:03:07;;;;;;;6.30;4.27;;;39.50;67.30;;;;;;5060550;28;20469;-75
2022/08/16 10:05:36;;;;;;;5.80;4.20;;;38.70;66.20;;;;;;5062570;28;20449;-75
2022/08/16 10:08:04;;;;;;;5.13;4.73;;;39.30;65.20;;;;;;5063161;28;20840;-75
2022/08/16 10:10:31;;;;;;;5.00;4.50;;;38.80;64.80;;;;;;5059031;28;20487;-75
2022/08/16 10:13:13;;;;;;;5.50;4.57;;;38.30;64.50;;;;;;5062814;28;20453;-75
2022/08/16 10:15:42;;;;;;;4.80;4.40;;;38.40;63.80;;;;;;5058929;28;20911;-75
2022/08/16 10:18:12;;;;;;;4.33;3.93;;;38.50;62.70;;;;;;5060026;28;20433;-75
2022/08/16 10:20:40;;;;;;;5.80;4.60;;;38.60;63.70;;;;;;5059154;28;20459;-75
2022/08/16 10:23:10;;;;;;;5.23;4.00;;;38.40;64.80;;;;;;5046308;28;20459;-75
2022/08/16 10:25:40;;;;;;;4.87;4.37;;;38.20;64.50;;;;;;5048250;28;20445;-75
2022/08/16 10:28:08;;;;;;;5.50;4.07;;;38.90;62.00;;;;;;5039603;28;20960;-75
2022/08/16 10:30:35;;;;;;;8.13;3.90;;;38.60;62.50;;;;;;5043511;28;21191;-75
2022/08/16 10:33:03;;;;;;;8.83;3.97;;;39.30;62.80;;;;;;5045807;28;20464;-75
2022/08/16 10:35:31;;;;;;;5.00;4.50;;;38.70;62.50;;;;;;5046075;28;20463;-74
2022/08/16 10:37:58;;;;;;;3.70;3.07;;;39.00;59.80;;;;;;5046491;28;22146;-75
2022/08/16 10:40:25;;;;;;;4.43;4.03;;;39.00;60.00;;;;;;5043736;28;20455;-75
2022/08/16 10:42:52;;;;;;;3.87;3.57;;;38.90;59.80;;;;;;5045446;28;20460;-75
2022/08/16 10:45:19;;;;;;;7.20;4.00;;;39.10;58.40;;;;;;5046137;28;20448;-75
2022/08/16 10:47:47;;;;;;;4.93;3.60;;;39.60;57.10;;;;;;5048941;28;20440;-75
2022/08/16 10:50:14;;;;;;;3.93;3.60;;;39.50;57.10;;;;;;5047719;28;20506;-75
2022/08/16 10:52:42;;;;;;;3.83;3.53;;;39.10;57.00;;;;;;5046769;28;20474;-75
2022/08/16 10:55:11;;;;;;;3.60;3.40;;;38.90;57.10;;;;;;5044692;28;20440;-75
2022/08/16 10:57:39;;;;;;;4.70;4.17;;;39.20;58.20;;;;;;5043874;28;20944;-74
2022/08/16 11:00:09;;;;;;;6.10;3.97;;;39.90;56.90;;;;;;5042995;28;20545;-74
2022/08/16 11:02:36;;;;;;;5.33;3.30;;;39.50;55.50;;;;;;5043416;28;20829;-75
2022/08/16 11:05:05;;;;;;;3.93;3.10;;;38.90;55.00;;;;;;5045152;28;20509;-75
2022/08/16 11:07:31;;;;;;;4.10;3.80;;;39.40;54.30;;;;;;5041850;28;20447;-75
2022/08/16 11:10:01;;;;;;;5.27;3.87;;;39.30;55.00;;;;;;5046340;28;20607;-75
2022/08/16 11:12:28;;;;;;;3.97;3.67;;;38.00;56.50;;;;;;5041367;28;20460;-74
2022/08/16 11:14:54;;;;;;;3.67;3.30;;;37.50;56.80;;;;;;5047582;28;20448;-75
2022/08/16 11:17:21;;;;;;;5.43;4.27;;;37.90;57.50;;;;;;5042520;28;20466;-75
2022/08/16 11:19:48;;;;;;;7.33;4.77;;;37.90;56.20;;;;;;5044748;28;20475;-76
2022/08/16 11:22:15;;;;;;;4.73;3.83;;;39.00;56.80;;;;;;5047691;28;20518;-74
2022/08/16 11:24:42;;;;;;;4.53;4.23;;;39.20;55.70;;;;;;5048566;28;20446;-76
2022/08/16 11:27:13;;;;;;;3.60;3.30;;;38.50;56.10;;;;;;5047454;28;20848;-73
2022/08/16 11:29:40;;;;;;;5.47;4.07;;;38.70;55.70;;;;;;5045025;28;20463;-74
2022/08/16 11:32:07;;;;;;;5.47;3.80;;;39.20;55.40;;;;;;5043436;28;20444;-75
2022/08/16 11:34:34;;;;;;;5.10;4.13;;;39.30;55.00;;;;;;5055573;28;20440;-75
2022/08/16 11:37:02;;;;;;;7.63;4.10;;;39.30;54.90;;;;;;5046696;28;20451;-75
2022/08/16 11:39:30;;;;;;;5.60;3.50;;;39.60;54.00;;;;;;5047791;28;20459;-75
2022/08/16 11:41:57;;;;;;;4.40;3.77;;;40.10;53.90;;;;;;5045874;28;20879;-74
2022/08/16 11:44:26;;;;;;;4.53;3.77;;;40.40;52.80;;;;;;5042303;28;20794;-75
2022/08/16 11:46:53;;;;;;;6.10;3.73;;;40.30;53.20;;;;;;5048722;28;20440;-75
2022/08/16 11:49:20;;;;;;;4.37;3.93;;;40.30;53.00;;;;;;5049160;28;20460;-75
2022/08/16 11:51:48;;;;;;;4.07;3.50;;;39.70;52.50;;;;;;5043925;28;20850;-75
2022/08/16 11:54:16;;;;;;;3.53;3.17;;;40.20;51.90;;;;;;5035484;28;20913;-76
2022/08/16 11:56:44;;;;;;;6.50;3.50;;;40.00;50.70;;;;;;5043789;28;20458;-75
2022/08/16 11:59:11;;;;;;;4.50;3.63;;;39.60;51.80;;;;;;5046176;28;20460;-74
2022/08/16 12:01:39;;;;;;;13.03;4.50;;;38.70;52.20;;;;;;5043363;28;20455;-74
2022/08/16 12:04:06;;;;;;;5.33;3.93;;;38.00;53.10;;;;;;5047346;28;20978;-74
2022/08/16 12:06:33;;;;;;;5.50;3.57;;;38.30;53.30;;;;;;5041876;28;20875;-75
2022/08/16 12:09:00;;;;;;;4.30;3.90;;;39.10;51.60;;;;;;5041650;28;20459;-75
2022/08/16 12:11:27;;;;;;;4.30;4.00;;;39.90;50.30;;;;;;5042083;28;20521;-74
2022/08/16 12:13:54;;;;;;;3.77;3.47;;;40.30;49.70;;;;;;5044199;28;20586;-74
2022/08/16 12:16:22;;;;;;;4.60;4.10;;;40.10;49.50;;;;;;5042740;28;20454;-75
2022/08/16 12:18:50;;;;;;;4.27;3.30;;;40.00;50.60;;;;;;5040521;28;20551;-74
2022/08/16 12:21:17;;;;;;;6.63;5.93;;;38.70;51.20;;;;;;5043760;28;20963;-74
2022/08/16 12:23:44;;;;;;;5.00;3.67;;;39.10;52.10;;;;;;5044775;28;20497;-75
2022/08/16 12:26:11;;;;;;;3.67;3.30;;;40.00;50.30;;;;;;5040785;28;20451;-73
2022/08/16 12:28:38;;;;;;;4.03;3.63;;;39.90;50.50;;;;;;5047424;28;20440;-75
2022/08/16 12:31:05;;;;;;;8.23;3.87;;;39.80;50.60;;;;;;5035997;28;20857;-74
2022/08/16 12:33:32;;;;;;;4.40;3.50;;;40.00;50.40;;;;;;5049166;28;20979;-75
2022/08/16 12:36:01;;;;;;;4.03;3.67;;;40.30;49.00;;;;;;5047183;28;20448;-74
2022/08/16 12:38:29;;;;;;;7.00;3.80;;;39.60;49.20;;;;;;5043964;28;20451;-77
2022/08/16 12:40:57;;;;;;;3.70;3.40;;;39.70;48.80;;;;;;5046385;28;21017;-74
2022/08/16 12:43:24;;;;;;;5.00;3.67;;;40.20;48.70;;;;;;5040477;28;20452;-75
2022/08/16 12:45:54;;;;;;;3.90;2.93;;;40.60;48.30;;;;;;5041617;28;20463;-75
2022/08/16 12:51:20;;;;;;;4.13;3.67;;;39.90;47.90;;;;;;5045434;28;20475;-75
2022/08/16 12:53:49;;;;;;;5.13;3.10;;;39.00;49.40;;;;;;5046443;28;20447;-75